sensor_id;sensor_type;location;lat;lon;timestamp;P1;durP1;ratioP1;P2;durP2;ratioP2
5507;SDS011;2776;51.046;6.772;2023-04-01T00:00:15;0.73;;;0.60;;
5507;SDS011;2776;51.046;6.772;2023-04-01T00:02:54;1.37;;;0.70;;
5507;SDS011;2776;51.046;6.772;2023-04-01T00:05:30;1.27;;;0.50;;
5507;SDS011;2776;51.046;6.772;2023-04-01T00:08:01;2.50;;;0.40;;
5507;SDS011;2776;51.046;6.772;2023-04-01T00:10:35;2.73;;;0.50;;
5507;SDS011;2776;51.046;6.772;2023-04-01T00:13:11;1.70;;;0.30;;
5507;SDS011;2776;51.046;6.772;2023-04-01T00:15:49;1.63;;;0.20;;
5507;SDS011;2776;51.046;6.772;2023-04-01T00:18:25;1.60;;;0.63;;
5507;SDS011;2776;51.046;6.772;2023-04-01T00:21:04;2.53;;;0.53;;
5507;SDS011;2776;51.046;6.772;2023-04-01T00:23:37;0.77;;;0.50;;
5507;SDS011;2776;51.046;6.772;2023-04-01T00:26:10;3.03;;;0.63;;
5507;SDS011;2776;51.046;6.772;2023-04-01T00:28:56;1.90;;;0.40;;
5507;SDS011;2776;51.046;6.772;2023-04-01T00:31:30;2.50;;;0.50;;
5507;SDS011;2776;51.046;6.772;2023-04-01T00:34:14;0.50;;;0.20;;
5507;SDS011;2776;51.046;6.772;2023-04-01T00:36:52;1.17;;;0.50;;
5507;SDS011;2776;51.046;6.772;2023-04-01T00:39:24;2.50;;;0.70;;
5507;SDS011;2776;51.046;6.772;2023-04-01T00:42:04;2.00;;;0.57;;
5507;SDS011;2776;51.046;6.772;2023-04-01T00:44:39;3.23;;;0.83;;
5507;SDS011;2776;51.046;6.772;2023-04-01T00:47:19;0.97;;;0.60;;
5507;SDS011;2776;51.046;6.772;2023-04-01T00:49:58;2.60;;;0.30;;
5507;SDS011;2776;51.046;6.772;2023-04-01T00:52:39;1.27;;;0.60;;
5507;SDS011;2776;51.046;6.772;2023-04-01T00:55:21;2.03;;;0.40;;
5507;SDS011;2776;51.046;6.772;2023-04-01T00:57:57;1.40;;;0.60;;
5507;SDS011;2776;51.046;6.772;2023-04-01T01:00:40;1.30;;;0.50;;
5507;SDS011;2776;51.046;6.772;2023-04-01T01:03:22;0.80;;;0.50;;
5507;SDS011;2776;51.046;6.772;2023-04-01T01:06:10;1.33;;;0.40;;
5507;SDS011;2776;51.046;6.772;2023-04-01T01:09:17;1.60;;;0.43;;
5507;SDS011;2776;51.046;6.772;2023-04-01T01:12:03;2.60;;;0.40;;
5507;SDS011;2776;51.046;6.772;2023-04-01T01:14:52;3.17;;;0.70;;
5507;SDS011;2776;51.046;6.772;2023-04-01T01:17:38;1.30;;;0.63;;
5507;SDS011;2776;51.046;6.772;2023-04-01T01:20:24;3.63;;;0.70;;
5507;SDS011;2776;51.046;6.772;2023-04-01T01:29:45;2.60;;;0.50;;
5507;SDS011;2776;51.046;6.772;2023-04-01T01:36:03;2.20;;;0.47;;
5507;SDS011;2776;51.046;6.772;2023-04-01T01:38:42;4.30;;;0.60;;
5507;SDS011;2776;51.046;6.772;2023-04-01T01:41:26;3.83;;;0.47;;
5507;SDS011;2776;51.046;6.772;2023-04-01T01:44:07;1.47;;;0.40;;
5507;SDS011;2776;51.046;6.772;2023-04-01T01:46:53;2.03;;;0.40;;
5507;SDS011;2776;51.046;6.772;2023-04-01T01:49:32;1.77;;;0.50;;
5507;SDS011;2776;51.046;6.772;2023-04-01T01:52:17;1.27;;;0.57;;
5507;SDS011;2776;51.046;6.772;2023-04-01T01:54:55;1.03;;;0.70;;
5507;SDS011;2776;51.046;6.772;2023-04-01T01:57:39;1.80;;;0.50;;
5507;SDS011;2776;51.046;6.772;2023-04-01T02:00:16;0.90;;;0.57;;
5507;SDS011;2776;51.046;6.772;2023-04-01T02:02:47;0.90;;;0.20;;
5507;SDS011;2776;51.046;6.772;2023-04-01T02:05:26;2.33;;;0.50;;
5507;SDS011;2776;51.046;6.772;2023-04-01T02:08:10;0.87;;;0.33;;
5507;SDS011;2776;51.046;6.772;2023-04-01T02:10:51;1.13;;;0.40;;
5507;SDS011;2776;51.046;6.772;2023-04-01T02:13:31;2.83;;;0.40;;
5507;SDS011;2776;51.046;6.772;2023-04-01T02:16:20;2.17;;;0.47;;
5507;SDS011;2776;51.046;6.772;2023-04-01T02:18:59;2.53;;;0.33;;
5507;SDS011;2776;51.046;6.772;2023-04-01T02:21:38;2.47;;;0.47;;
5507;SDS011;2776;51.046;6.772;2023-04-01T02:24:23;0.97;;;0.30;;
5507;SDS011;2776;51.046;6.772;2023-04-01T02:27:23;0.50;;;0.20;;
5507;SDS011;2776;51.046;6.772;2023-04-01T02:30:02;0.83;;;0.40;;
5507;SDS011;2776;51.046;6.772;2023-04-01T02:32:45;0.80;;;0.30;;
5507;SDS011;2776;51.046;6.772;2023-04-01T02:35:26;0.50;;;0.40;;
5507;SDS011;2776;51.046;6.772;2023-04-01T02:37:59;0.63;;;0.40;;
5507;SDS011;2776;51.046;6.772;2023-04-01T02:40:49;0.97;;;0.60;;
5507;SDS011;2776;51.046;6.772;2023-04-01T02:43:31;0.93;;;0.20;;
5507;SDS011;2776;51.046;6.772;2023-04-01T02:46:02;2.30;;;0.50;;
5507;SDS011;2776;51.046;6.772;2023-04-01T02:48:42;3.13;;;0.90;;
5507;SDS011;2776;51.046;6.772;2023-04-01T02:51:15;0.20;;;0.20;;
5507;SDS011;2776;51.046;6.772;2023-04-01T02:53:53;0.13;;;0.13;;
5507;SDS011;2776;51.046;6.772;2023-04-01T02:56:39;0.40;;;0.20;;
5507;SDS011;2776;51.046;6.772;2023-04-01T02:59:15;0.87;;;0.30;;
5507;SDS011;2776;51.046;6.772;2023-04-01T03:02:00;0.20;;;0.20;;
5507;SDS011;2776;51.046;6.772;2023-04-01T03:04:44;1.27;;;0.47;;
5507;SDS011;2776;51.046;6.772;2023-04-01T03:07:24;0.83;;;0.30;;
5507;SDS011;2776;51.046;6.772;2023-04-01T03:10:03;0.87;;;0.23;;
5507;SDS011;2776;51.046;6.772;2023-04-01T03:12:47;0.50;;;0.50;;
5507;SDS011;2776;51.046;6.772;2023-04-01T03:15:30;1.47;;;0.20;;
5507;SDS011;2776;51.046;6.772;2023-04-01T03:18:06;0.93;;;0.40;;
5507;SDS011;2776;51.046;6.772;2023-04-01T03:20:48;1.20;;;0.40;;
5507;SDS011;2776;51.046;6.772;2023-04-01T03:23:36;1.27;;;0.33;;
5507;SDS011;2776;51.046;6.772;2023-04-01T03:26:17;1.97;;;0.70;;
5507;SDS011;2776;51.046;6.772;2023-04-01T03:29:00;1.93;;;0.60;;
5507;SDS011;2776;51.046;6.772;2023-04-01T03:31:44;2.73;;;0.60;;
5507;SDS011;2776;51.046;6.772;2023-04-01T03:34:26;2.10;;;0.70;;
5507;SDS011;2776;51.046;6.772;2023-04-01T03:37:09;1.20;;;0.43;;
5507;SDS011;2776;51.046;6.772;2023-04-01T03:39:45;1.20;;;0.50;;
5507;SDS011;2776;51.046;6.772;2023-04-01T03:42:27;0.97;;;0.47;;
5507;SDS011;2776;51.046;6.772;2023-04-01T03:45:06;0.77;;;0.40;;
5507;SDS011;2776;51.046;6.772;2023-04-01T03:47:43;0.90;;;0.60;;
5507;SDS011;2776;51.046;6.772;2023-04-01T03:50:18;2.03;;;0.60;;
5507;SDS011;2776;51.046;6.772;2023-04-01T03:53:00;1.47;;;0.50;;
5507;SDS011;2776;51.046;6.772;2023-04-01T03:55:33;1.87;;;0.50;;
5507;SDS011;2776;51.046;6.772;2023-04-01T03:58:14;1.73;;;0.93;;
5507;SDS011;2776;51.046;6.772;2023-04-01T04:00:58;0.50;;;0.50;;
5507;SDS011;2776;51.046;6.772;2023-04-01T04:03:50;0.93;;;0.50;;
5507;SDS011;2776;51.046;6.772;2023-04-01T04:06:33;1.53;;;0.57;;
5507;SDS011;2776;51.046;6.772;2023-04-01T04:09:09;3.13;;;1.00;;
5507;SDS011;2776;51.046;6.772;2023-04-01T04:11:48;1.33;;;0.60;;
5507;SDS011;2776;51.046;6.772;2023-04-01T04:14:34;1.33;;;0.40;;
5507;SDS011;2776;51.046;6.772;2023-04-01T04:17:16;1.60;;;0.50;;
5507;SDS011;2776;51.046;6.772;2023-04-01T04:20:01;0.43;;;0.30;;
5507;SDS011;2776;51.046;6.772;2023-04-01T04:22:42;3.97;;;0.70;;
5507;SDS011;2776;51.046;6.772;2023-04-01T04:25:19;2.37;;;0.80;;
5507;SDS011;2776;51.046;6.772;2023-04-01T04:28:01;1.27;;;0.40;;
5507;SDS011;2776;51.046;6.772;2023-04-01T04:30:43;2.23;;;0.50;;
5507;SDS011;2776;51.046;6.772;2023-04-01T04:33:21;0.80;;;0.30;;
5507;SDS011;2776;51.046;6.772;2023-04-01T04:36:00;0.50;;;0.40;;
5507;SDS011;2776;51.046;6.772;2023-04-01T04:38:37;0.40;;;0.40;;
5507;SDS011;2776;51.046;6.772;2023-04-01T04:41:09;2.00;;;0.70;;
5507;SDS011;2776;51.046;6.772;2023-04-01T04:43:40;1.17;;;0.57;;
5507;SDS011;2776;51.046;6.772;2023-04-01T04:46:17;2.77;;;0.70;;
5507;SDS011;2776;51.046;6.772;2023-04-01T04:48:49;1.00;;;0.50;;
5507;SDS011;2776;51.046;6.772;2023-04-01T04:51:20;1.60;;;0.53;;
5507;SDS011;2776;51.046;6.772;2023-04-01T04:53:52;0.57;;;0.50;;
5507;SDS011;2776;51.046;6.772;2023-04-01T04:56:24;1.57;;;0.60;;
5507;SDS011;2776;51.046;6.772;2023-04-01T04:58:55;3.60;;;0.50;;
5507;SDS011;2776;51.046;6.772;2023-04-01T05:01:26;1.33;;;0.53;;
5507;SDS011;2776;51.046;6.772;2023-04-01T05:04:02;1.50;;;0.30;;
5507;SDS011;2776;51.046;6.772;2023-04-01T05:06:35;1.20;;;0.53;;
5507;SDS011;2776;51.046;6.772;2023-04-01T05:09:11;0.23;;;0.23;;
5507;SDS011;2776;51.046;6.772;2023-04-01T05:11:51;0.37;;;0.33;;
5507;SDS011;2776;51.046;6.772;2023-04-01T05:14:31;0.83;;;0.40;;
5507;SDS011;2776;51.046;6.772;2023-04-01T05:17:02;0.30;;;0.27;;
5507;SDS011;2776;51.046;6.772;2023-04-01T05:19:50;0.63;;;0.40;;
5507;SDS011;2776;51.046;6.772;2023-04-01T05:22:28;0.93;;;0.40;;
5507;SDS011;2776;51.046;6.772;2023-04-01T05:24:59;0.40;;;0.40;;
5507;SDS011;2776;51.046;6.772;2023-04-01T05:27:31;0.70;;;0.43;;
5507;SDS011;2776;51.046;6.772;2023-04-01T05:30:15;0.40;;;0.40;;
5507;SDS011;2776;51.046;6.772;2023-04-01T05:32:47;0.60;;;0.50;;
5507;SDS011;2776;51.046;6.772;2023-04-01T05:35:29;2.30;;;0.93;;
5507;SDS011;2776;51.046;6.772;2023-04-01T05:38:00;0.67;;;0.67;;
5507;SDS011;2776;51.046;6.772;2023-04-01T05:40:30;0.60;;;0.60;;
5507;SDS011;2776;51.046;6.772;2023-04-01T05:43:01;0.70;;;0.70;;
5507;SDS011;2776;51.046;6.772;2023-04-01T05:45:33;0.77;;;0.57;;
5507;SDS011;2776;51.046;6.772;2023-04-01T05:48:04;0.60;;;0.60;;
5507;SDS011;2776;51.046;6.772;2023-04-01T05:50:37;0.73;;;0.70;;
5507;SDS011;2776;51.046;6.772;2023-04-01T05:53:11;0.53;;;0.53;;
5507;SDS011;2776;51.046;6.772;2023-04-01T05:55:53;1.17;;;0.90;;
5507;SDS011;2776;51.046;6.772;2023-04-01T05:58:32;1.27;;;0.70;;
5507;SDS011;2776;51.046;6.772;2023-04-01T06:01:15;1.07;;;0.80;;
5507;SDS011;2776;51.046;6.772;2023-04-01T06:03:50;0.80;;;0.80;;
5507;SDS011;2776;51.046;6.772;2023-04-01T06:06:29;1.13;;;0.73;;
5507;SDS011;2776;51.046;6.772;2023-04-01T06:09:12;0.80;;;0.80;;
5507;SDS011;2776;51.046;6.772;2023-04-01T06:15:00;2.70;;;0.80;;
5507;SDS011;2776;51.046;6.772;2023-04-01T06:17:50;1.07;;;0.97;;
5507;SDS011;2776;51.046;6.772;2023-04-01T06:20:38;0.60;;;0.60;;
5507;SDS011;2776;51.046;6.772;2023-04-01T06:23:18;0.87;;;0.70;;
5507;SDS011;2776;51.046;6.772;2023-04-01T06:26:05;0.90;;;0.70;;
5507;SDS011;2776;51.046;6.772;2023-04-01T06:31:57;1.13;;;0.70;;
5507;SDS011;2776;51.046;6.772;2023-04-01T06:34:47;0.70;;;0.70;;
5507;SDS011;2776;51.046;6.772;2023-04-01T06:37:41;1.13;;;0.70;;
5507;SDS011;2776;51.046;6.772;2023-04-01T06:40:43;0.80;;;0.70;;
5507;SDS011;2776;51.046;6.772;2023-04-01T06:43:27;1.17;;;0.80;;
5507;SDS011;2776;51.046;6.772;2023-04-01T06:46:10;0.77;;;0.77;;
5507;SDS011;2776;51.046;6.772;2023-04-01T06:48:51;1.00;;;0.80;;
5507;SDS011;2776;51.046;6.772;2023-04-01T06:51:32;2.40;;;1.03;;
5507;SDS011;2776;51.046;6.772;2023-04-01T06:54:13;1.30;;;1.10;;
5507;SDS011;2776;51.046;6.772;2023-04-01T06:56:52;1.10;;;0.90;;
5507;SDS011;2776;51.046;6.772;2023-04-01T06:59:34;2.23;;;1.17;;
5507;SDS011;2776;51.046;6.772;2023-04-01T07:02:16;1.17;;;1.07;;
5507;SDS011;2776;51.046;6.772;2023-04-01T07:04:53;1.43;;;1.20;;
5507;SDS011;2776;51.046;6.772;2023-04-01T07:07:27;3.03;;;1.60;;
5507;SDS011;2776;51.046;6.772;2023-04-01T07:10:09;2.90;;;1.50;;
5507;SDS011;2776;51.046;6.772;2023-04-01T07:12:47;2.57;;;1.50;;
5507;SDS011;2776;51.046;6.772;2023-04-01T07:15:23;2.63;;;1.90;;
5507;SDS011;2776;51.046;6.772;2023-04-01T07:18:07;2.07;;;1.60;;
5507;SDS011;2776;51.046;6.772;2023-04-01T07:20:45;2.90;;;1.80;;
5507;SDS011;2776;51.046;6.772;2023-04-01T07:23:28;2.10;;;1.53;;
5507;SDS011;2776;51.046;6.772;2023-04-01T07:26:19;2.37;;;1.30;;
5507;SDS011;2776;51.046;6.772;2023-04-01T07:28:57;1.63;;;1.53;;
5507;SDS011;2776;51.046;6.772;2023-04-01T07:31:42;2.00;;;1.80;;
5507;SDS011;2776;51.046;6.772;2023-04-01T07:34:34;1.63;;;1.53;;
5507;SDS011;2776;51.046;6.772;2023-04-01T07:37:10;2.53;;;1.73;;
5507;SDS011;2776;51.046;6.772;2023-04-01T07:39:48;2.03;;;1.60;;
5507;SDS011;2776;51.046;6.772;2023-04-01T07:42:35;2.13;;;1.40;;
5507;SDS011;2776;51.046;6.772;2023-04-01T07:45:30;1.70;;;1.60;;
5507;SDS011;2776;51.046;6.772;2023-04-01T07:48:14;1.47;;;1.37;;
5507;SDS011;2776;51.046;6.772;2023-04-01T07:50:50;1.50;;;1.30;;
5507;SDS011;2776;51.046;6.772;2023-04-01T07:53:38;1.67;;;1.37;;
5507;SDS011;2776;51.046;6.772;2023-04-01T07:56:21;1.97;;;1.50;;
5507;SDS011;2776;51.046;6.772;2023-04-01T07:59:11;1.67;;;1.40;;
5507;SDS011;2776;51.046;6.772;2023-04-01T08:02:23;2.03;;;1.60;;
5507;SDS011;2776;51.046;6.772;2023-04-01T08:05:08;1.30;;;1.20;;
5507;SDS011;2776;51.046;6.772;2023-04-01T08:07:49;1.40;;;1.30;;
5507;SDS011;2776;51.046;6.772;2023-04-01T08:10:32;1.80;;;1.33;;
5507;SDS011;2776;51.046;6.772;2023-04-01T08:13:12;2.03;;;1.20;;
5507;SDS011;2776;51.046;6.772;2023-04-01T08:16:08;1.03;;;1.03;;
5507;SDS011;2776;51.046;6.772;2023-04-01T08:18:57;1.30;;;1.20;;
5507;SDS011;2776;51.046;6.772;2023-04-01T08:21:38;1.33;;;1.20;;
5507;SDS011;2776;51.046;6.772;2023-04-01T08:24:14;1.80;;;1.23;;
5507;SDS011;2776;51.046;6.772;2023-04-01T08:27:00;0.90;;;0.90;;
5507;SDS011;2776;51.046;6.772;2023-04-01T08:29:49;3.80;;;1.10;;
5507;SDS011;2776;51.046;6.772;2023-04-01T08:32:32;1.13;;;1.03;;
5507;SDS011;2776;51.046;6.772;2023-04-01T08:35:14;0.97;;;0.97;;
5507;SDS011;2776;51.046;6.772;2023-04-01T08:37:59;1.30;;;1.20;;
5507;SDS011;2776;51.046;6.772;2023-04-01T08:40:55;1.67;;;0.80;;
5507;SDS011;2776;51.046;6.772;2023-04-01T08:46:47;0.90;;;0.90;;
5507;SDS011;2776;51.046;6.772;2023-04-01T08:52:45;1.07;;;1.07;;
5507;SDS011;2776;51.046;6.772;2023-04-01T08:55:42;1.20;;;1.07;;
5507;SDS011;2776;51.046;6.772;2023-04-01T08:58:50;1.10;;;1.00;;
5507;SDS011;2776;51.046;6.772;2023-04-01T09:01:48;1.10;;;0.80;;
5507;SDS011;2776;51.046;6.772;2023-04-01T09:04:50;0.83;;;0.83;;
5507;SDS011;2776;51.046;6.772;2023-04-01T09:07:54;0.80;;;0.80;;
5507;SDS011;2776;51.046;6.772;2023-04-01T09:10:40;1.00;;;1.00;;
5507;SDS011;2776;51.046;6.772;2023-04-01T09:16:40;0.80;;;0.80;;
5507;SDS011;2776;51.046;6.772;2023-04-01T09:19:29;2.80;;;2.40;;
5507;SDS011;2776;51.046;6.772;2023-04-01T09:22:15;1.93;;;1.73;;
5507;SDS011;2776;51.046;6.772;2023-04-01T09:27:51;1.00;;;1.00;;
5507;SDS011;2776;51.046;6.772;2023-04-01T09:30:28;1.50;;;1.40;;
5507;SDS011;2776;51.046;6.772;2023-04-01T09:33:24;2.00;;;1.90;;
5507;SDS011;2776;51.046;6.772;2023-04-01T09:36:20;3.83;;;3.43;;
5507;SDS011;2776;51.046;6.772;2023-04-01T09:38:58;3.03;;;2.30;;
5507;SDS011;2776;51.046;6.772;2023-04-01T09:41:40;4.33;;;2.83;;
5507;SDS011;2776;51.046;6.772;2023-04-01T09:44:19;2.53;;;2.20;;
5507;SDS011;2776;51.046;6.772;2023-04-01T09:46:58;2.00;;;1.90;;
5507;SDS011;2776;51.046;6.772;2023-04-01T09:49:54;1.90;;;1.80;;
5507;SDS011;2776;51.046;6.772;2023-04-01T09:52:34;1.83;;;1.73;;
5507;SDS011;2776;51.046;6.772;2023-04-01T09:55:17;1.70;;;1.60;;
5507;SDS011;2776;51.046;6.772;2023-04-01T10:04:23;2.23;;;2.03;;
5507;SDS011;2776;51.046;6.772;2023-04-01T10:07:22;2.60;;;2.20;;
5507;SDS011;2776;51.046;6.772;2023-04-01T10:10:10;3.63;;;3.33;;
5507;SDS011;2776;51.046;6.772;2023-04-01T10:16:17;1.60;;;1.50;;
5507;SDS011;2776;51.046;6.772;2023-04-01T10:19:10;1.53;;;1.43;;
5507;SDS011;2776;51.046;6.772;2023-04-01T10:22:01;1.40;;;1.30;;
5507;SDS011;2776;51.046;6.772;2023-04-01T10:24:56;3.87;;;2.90;;
5507;SDS011;2776;51.046;6.772;2023-04-01T10:27:46;3.20;;;2.07;;
5507;SDS011;2776;51.046;6.772;2023-04-01T10:30:36;3.30;;;2.27;;
5507;SDS011;2776;51.046;6.772;2023-04-01T10:33:38;1.90;;;1.80;;
5507;SDS011;2776;51.046;6.772;2023-04-01T10:39:27;2.30;;;2.10;;
5507;SDS011;2776;51.046;6.772;2023-04-01T10:45:38;2.80;;;2.60;;
5507;SDS011;2776;51.046;6.772;2023-04-01T10:48:34;3.23;;;2.93;;
5507;SDS011;2776;51.046;6.772;2023-04-01T10:51:41;3.10;;;2.90;;
5507;SDS011;2776;51.046;6.772;2023-04-01T10:54:36;3.43;;;3.10;;
5507;SDS011;2776;51.046;6.772;2023-04-01T10:57:14;3.37;;;3.00;;
5507;SDS011;2776;51.046;6.772;2023-04-01T11:00:07;3.43;;;3.13;;
5507;SDS011;2776;51.046;6.772;2023-04-01T11:09:14;3.83;;;3.53;;
5507;SDS011;2776;51.046;6.772;2023-04-01T11:12:15;3.50;;;3.20;;
5507;SDS011;2776;51.046;6.772;2023-04-01T11:24:37;3.17;;;2.97;;
5507;SDS011;2776;51.046;6.772;2023-04-01T11:27:30;2.90;;;2.70;;
5507;SDS011;2776;51.046;6.772;2023-04-01T11:30:19;3.17;;;2.97;;
5507;SDS011;2776;51.046;6.772;2023-04-01T11:32:57;2.70;;;2.50;;
5507;SDS011;2776;51.046;6.772;2023-04-01T11:35:38;2.70;;;2.50;;
5507;SDS011;2776;51.046;6.772;2023-04-01T11:38:19;2.50;;;2.30;;
5507;SDS011;2776;51.046;6.772;2023-04-01T11:41:13;2.40;;;1.90;;
5507;SDS011;2776;51.046;6.772;2023-04-01T11:43:53;1.90;;;1.80;;
5507;SDS011;2776;51.046;6.772;2023-04-01T11:46:31;2.10;;;1.93;;
5507;SDS011;2776;51.046;6.772;2023-04-01T11:49:07;2.20;;;2.07;;
5507;SDS011;2776;51.046;6.772;2023-04-01T11:51:55;2.10;;;2.00;;
5507;SDS011;2776;51.046;6.772;2023-04-01T11:54:41;2.20;;;2.00;;
5507;SDS011;2776;51.046;6.772;2023-04-01T11:57:38;2.10;;;1.97;;
5507;SDS011;2776;51.046;6.772;2023-04-01T12:03:09;3.20;;;2.07;;
5507;SDS011;2776;51.046;6.772;2023-04-01T12:05:47;2.47;;;2.27;;
5507;SDS011;2776;51.046;6.772;2023-04-01T12:08:23;2.33;;;2.17;;
5507;SDS011;2776;51.046;6.772;2023-04-01T12:10:59;2.83;;;2.63;;
5507;SDS011;2776;51.046;6.772;2023-04-01T12:13:35;1.43;;;1.33;;
5507;SDS011;2776;51.046;6.772;2023-04-01T12:16:21;1.80;;;1.70;;
5507;SDS011;2776;51.046;6.772;2023-04-01T12:19:01;3.37;;;2.00;;
5507;SDS011;2776;51.046;6.772;2023-04-01T12:21:36;2.53;;;1.80;;
5507;SDS011;2776;51.046;6.772;2023-04-01T12:27:00;2.10;;;2.00;;
5507;SDS011;2776;51.046;6.772;2023-04-01T12:29:49;2.20;;;2.10;;
5507;SDS011;2776;51.046;6.772;2023-04-01T12:32:40;2.23;;;2.13;;
5507;SDS011;2776;51.046;6.772;2023-04-01T12:35:14;2.07;;;1.97;;
5507;SDS011;2776;51.046;6.772;2023-04-01T12:37:49;1.67;;;1.57;;
5507;SDS011;2776;51.046;6.772;2023-04-01T12:40:28;2.07;;;1.97;;
5507;SDS011;2776;51.046;6.772;2023-04-01T12:43:07;1.83;;;1.73;;
5507;SDS011;2776;51.046;6.772;2023-04-01T12:45:47;2.30;;;1.80;;
5507;SDS011;2776;51.046;6.772;2023-04-01T12:48:33;1.80;;;1.70;;
5507;SDS011;2776;51.046;6.772;2023-04-01T12:51:23;1.90;;;1.80;;
5507;SDS011;2776;51.046;6.772;2023-04-01T12:57:17;1.80;;;1.70;;
5507;SDS011;2776;51.046;6.772;2023-04-01T13:00:03;2.00;;;1.90;;
5507;SDS011;2776;51.046;6.772;2023-04-01T13:02:43;2.00;;;1.90;;
5507;SDS011;2776;51.046;6.772;2023-04-01T13:05:24;2.20;;;2.10;;
5507;SDS011;2776;51.046;6.772;2023-04-01T13:08:07;2.00;;;1.90;;
5507;SDS011;2776;51.046;6.772;2023-04-01T13:10:51;2.80;;;2.60;;
5507;SDS011;2776;51.046;6.772;2023-04-01T13:13:48;3.27;;;2.97;;
5507;SDS011;2776;51.046;6.772;2023-04-01T13:16:36;2.10;;;2.00;;
5507;SDS011;2776;51.046;6.772;2023-04-01T13:19:09;2.57;;;2.10;;
5507;SDS011;2776;51.046;6.772;2023-04-01T13:21:44;2.60;;;2.40;;
5507;SDS011;2776;51.046;6.772;2023-04-01T13:24:22;2.50;;;2.30;;
5507;SDS011;2776;51.046;6.772;2023-04-01T13:26:58;3.07;;;2.87;;
5507;SDS011;2776;51.046;6.772;2023-04-01T13:29:31;3.10;;;2.90;;
5507;SDS011;2776;51.046;6.772;2023-04-01T13:32:05;3.67;;;3.37;;
5507;SDS011;2776;51.046;6.772;2023-04-01T13:34:43;4.03;;;3.47;;
5507;SDS011;2776;51.046;6.772;2023-04-01T13:37:24;4.60;;;4.20;;
5507;SDS011;2776;51.046;6.772;2023-04-01T13:40:11;3.47;;;3.27;;
5507;SDS011;2776;51.046;6.772;2023-04-01T13:43:01;3.00;;;2.80;;
5507;SDS011;2776;51.046;6.772;2023-04-01T13:45:33;5.17;;;4.43;;
5507;SDS011;2776;51.046;6.772;2023-04-01T13:48:22;3.07;;;2.77;;
5507;SDS011;2776;51.046;6.772;2023-04-01T13:54:18;3.53;;;2.40;;
5507;SDS011;2776;51.046;6.772;2023-04-01T13:57:07;2.57;;;2.37;;
5507;SDS011;2776;51.046;6.772;2023-04-01T14:00:03;5.47;;;2.90;;
5507;SDS011;2776;51.046;6.772;2023-04-01T14:05:52;3.07;;;2.80;;
5507;SDS011;2776;51.046;6.772;2023-04-01T14:08:32;2.33;;;2.17;;
5507;SDS011;2776;51.046;6.772;2023-04-01T14:11:10;2.40;;;2.20;;
5507;SDS011;2776;51.046;6.772;2023-04-01T14:13:43;2.53;;;2.30;;
5507;SDS011;2776;51.046;6.772;2023-04-01T14:16:26;2.73;;;2.53;;
5507;SDS011;2776;51.046;6.772;2023-04-01T14:19:27;2.30;;;2.20;;
5507;SDS011;2776;51.046;6.772;2023-04-01T14:22:11;2.60;;;2.40;;
5507;SDS011;2776;51.046;6.772;2023-04-01T14:24:49;2.40;;;2.20;;
5507;SDS011;2776;51.046;6.772;2023-04-01T14:27:39;2.60;;;2.40;;
5507;SDS011;2776;51.046;6.772;2023-04-01T14:30:24;2.57;;;2.37;;
5507;SDS011;2776;51.046;6.772;2023-04-01T14:33:01;2.57;;;2.30;;
5507;SDS011;2776;51.046;6.772;2023-04-01T14:35:38;3.00;;;2.70;;
5507;SDS011;2776;51.046;6.772;2023-04-01T14:38:24;2.87;;;2.60;;
5507;SDS011;2776;51.046;6.772;2023-04-01T14:41:12;2.63;;;2.43;;
5507;SDS011;2776;51.046;6.772;2023-04-01T14:43:49;2.80;;;2.60;;
5507;SDS011;2776;51.046;6.772;2023-04-01T14:46:51;2.90;;;2.70;;
5507;SDS011;2776;51.046;6.772;2023-04-01T14:49:31;3.37;;;3.07;;
5507;SDS011;2776;51.046;6.772;2023-04-01T14:52:04;3.40;;;3.13;;
5507;SDS011;2776;51.046;6.772;2023-04-01T14:54:36;4.20;;;3.90;;
5507;SDS011;2776;51.046;6.772;2023-04-01T14:57:09;3.23;;;3.03;;
5507;SDS011;2776;51.046;6.772;2023-04-01T14:59:40;4.00;;;3.53;;
5507;SDS011;2776;51.046;6.772;2023-04-01T15:02:15;3.53;;;3.17;;
5507;SDS011;2776;51.046;6.772;2023-04-01T15:04:56;3.90;;;3.13;;
5507;SDS011;2776;51.046;6.772;2023-04-01T15:07:52;2.93;;;2.73;;
5507;SDS011;2776;51.046;6.772;2023-04-01T15:10:31;2.67;;;2.47;;
5507;SDS011;2776;51.046;6.772;2023-04-01T15:13:31;3.40;;;2.77;;
5507;SDS011;2776;51.046;6.772;2023-04-01T15:16:13;3.23;;;3.00;;
5507;SDS011;2776;51.046;6.772;2023-04-01T15:18:48;3.33;;;3.03;;
5507;SDS011;2776;51.046;6.772;2023-04-01T15:21:26;3.43;;;3.13;;
5507;SDS011;2776;51.046;6.772;2023-04-01T15:24:10;4.30;;;3.90;;
5507;SDS011;2776;51.046;6.772;2023-04-01T15:26:52;3.63;;;3.33;;
5507;SDS011;2776;51.046;6.772;2023-04-01T15:29:39;3.60;;;3.30;;
5507;SDS011;2776;51.046;6.772;2023-04-01T15:32:21;4.10;;;3.57;;
5507;SDS011;2776;51.046;6.772;2023-04-01T15:34:55;3.40;;;3.10;;
5507;SDS011;2776;51.046;6.772;2023-04-01T15:37:29;3.70;;;3.40;;
5507;SDS011;2776;51.046;6.772;2023-04-01T15:40:06;3.67;;;3.37;;
5507;SDS011;2776;51.046;6.772;2023-04-01T15:42:47;5.07;;;3.03;;
5507;SDS011;2776;51.046;6.772;2023-04-01T15:45:31;3.27;;;3.00;;
5507;SDS011;2776;51.046;6.772;2023-04-01T15:48:10;5.77;;;3.30;;
5507;SDS011;2776;51.046;6.772;2023-04-01T15:53:50;3.30;;;3.00;;
5507;SDS011;2776;51.046;6.772;2023-04-01T15:56:28;4.40;;;2.93;;
5507;SDS011;2776;51.046;6.772;2023-04-01T15:59:09;3.53;;;3.23;;
5507;SDS011;2776;51.046;6.772;2023-04-01T16:01:47;3.53;;;3.23;;
5507;SDS011;2776;51.046;6.772;2023-04-01T16:04:31;4.10;;;3.40;;
5507;SDS011;2776;51.046;6.772;2023-04-01T16:07:17;3.37;;;3.10;;
5507;SDS011;2776;51.046;6.772;2023-04-01T16:10:07;3.13;;;2.63;;
5507;SDS011;2776;51.046;6.772;2023-04-01T16:12:47;3.20;;;2.90;;
5507;SDS011;2776;51.046;6.772;2023-04-01T16:15:24;2.80;;;2.60;;
5507;SDS011;2776;51.046;6.772;2023-04-01T16:18:02;2.87;;;2.40;;
5507;SDS011;2776;51.046;6.772;2023-04-01T16:20:55;3.20;;;2.90;;
5507;SDS011;2776;51.046;6.772;2023-04-01T16:23:26;3.00;;;2.80;;
5507;SDS011;2776;51.046;6.772;2023-04-01T16:26:02;2.93;;;2.63;;
5507;SDS011;2776;51.046;6.772;2023-04-01T16:28:34;2.97;;;2.77;;
5507;SDS011;2776;51.046;6.772;2023-04-01T16:31:06;3.40;;;3.10;;
5507;SDS011;2776;51.046;6.772;2023-04-01T16:33:40;3.27;;;2.80;;
5507;SDS011;2776;51.046;6.772;2023-04-01T16:36:19;3.10;;;2.90;;
5507;SDS011;2776;51.046;6.772;2023-04-01T16:38:52;2.90;;;2.70;;
5507;SDS011;2776;51.046;6.772;2023-04-01T16:41:25;3.07;;;2.87;;
5507;SDS011;2776;51.046;6.772;2023-04-01T16:43:58;3.20;;;3.00;;
5507;SDS011;2776;51.046;6.772;2023-04-01T16:46:39;3.27;;;2.97;;
5507;SDS011;2776;51.046;6.772;2023-04-01T16:49:15;3.93;;;3.63;;
5507;SDS011;2776;51.046;6.772;2023-04-01T16:51:53;5.13;;;4.63;;
5507;SDS011;2776;51.046;6.772;2023-04-01T16:54:28;3.80;;;3.50;;
5507;SDS011;2776;51.046;6.772;2023-04-01T16:57:02;3.43;;;3.07;;
5507;SDS011;2776;51.046;6.772;2023-04-01T16:59:43;2.90;;;2.70;;
5507;SDS011;2776;51.046;6.772;2023-04-01T17:02:13;2.70;;;2.50;;
5507;SDS011;2776;51.046;6.772;2023-04-01T17:04:43;2.60;;;2.40;;
5507;SDS011;2776;51.046;6.772;2023-04-01T17:07:21;2.60;;;2.40;;
5507;SDS011;2776;51.046;6.772;2023-04-01T17:10:02;2.73;;;2.37;;
5507;SDS011;2776;51.046;6.772;2023-04-01T17:12:50;2.83;;;2.63;;
5507;SDS011;2776;51.046;6.772;2023-04-01T17:15:28;3.03;;;2.40;;
5507;SDS011;2776;51.046;6.772;2023-04-01T17:17:59;2.73;;;2.30;;
5507;SDS011;2776;51.046;6.772;2023-04-01T17:20:42;4.83;;;3.23;;
5507;SDS011;2776;51.046;6.772;2023-04-01T17:23:18;3.43;;;3.13;;
5507;SDS011;2776;51.046;6.772;2023-04-01T17:26:06;2.50;;;2.30;;
5507;SDS011;2776;51.046;6.772;2023-04-01T17:28:44;2.50;;;2.30;;
5507;SDS011;2776;51.046;6.772;2023-04-01T17:31:20;2.40;;;2.20;;
5507;SDS011;2776;51.046;6.772;2023-04-01T17:34:03;2.73;;;2.10;;
5507;SDS011;2776;51.046;6.772;2023-04-01T17:36:43;2.70;;;2.50;;
5507;SDS011;2776;51.046;6.772;2023-04-01T17:39:29;2.57;;;2.37;;
5507;SDS011;2776;51.046;6.772;2023-04-01T17:42:05;6.27;;;5.67;;
5507;SDS011;2776;51.046;6.772;2023-04-01T17:44:38;2.80;;;2.60;;
5507;SDS011;2776;51.046;6.772;2023-04-01T17:47:17;2.40;;;2.20;;
5507;SDS011;2776;51.046;6.772;2023-04-01T17:50:00;2.93;;;2.43;;
5507;SDS011;2776;51.046;6.772;2023-04-01T17:52:37;3.10;;;2.90;;
5507;SDS011;2776;51.046;6.772;2023-04-01T17:55:24;2.83;;;2.43;;
5507;SDS011;2776;51.046;6.772;2023-04-01T17:58:00;4.23;;;3.83;;
5507;SDS011;2776;51.046;6.772;2023-04-01T18:00:30;2.90;;;2.57;;
5507;SDS011;2776;51.046;6.772;2023-04-01T18:03:09;3.23;;;2.90;;